createdAt,value
2018-07-20T00:01:12.546Z,14.1
2018-07-20T00:06:14.763Z,14.1
2018-07-20T00:11:17.086Z,14
2018-07-20T00:16:19.336Z,14
2018-07-20T00:21:21.616Z,13.9
2018-07-20T00:26:24.042Z,13.8
2018-07-20T00:31:26.160Z,13.8
2018-07-20T00:36:28.489Z,13.7
2018-07-20T00:41:30.916Z,13.7
2018-07-20T00:46:33.124Z,13.6
2018-07-20T00:51:35.421Z,13.6
2018-07-20T00:56:37.756Z,13.5
2018-07-20T01:01:40.167Z,13.5
2018-07-20T01:06:42.280Z,13.5
2018-07-20T01:11:44.540Z,13.4
2018-07-20T01:16:46.922Z,13.3
2018-07-20T01:21:49.171Z,13.2
2018-07-20T01:26:51.620Z,13.2
2018-07-20T01:31:53.928Z,13.2
2018-07-20T01:36:56.048Z,13.2
2018-07-20T01:41:58.441Z,13.1
2018-07-20T01:47:00.659Z,13.1
2018-07-20T01:52:02.899Z,13
2018-07-20T01:57:05.231Z,13
2018-07-20T02:02:07.602Z,12.9
2018-07-20T02:07:09.845Z,12.9
2018-07-20T02:12:12.116Z,12.9
2018-07-20T02:17:14.478Z,12.9
2018-07-20T02:22:16.731Z,12.8
2018-07-20T02:27:18.938Z,12.8
2018-07-20T02:32:21.320Z,12.8
2018-07-20T02:37:23.572Z,12.7
2018-07-20T02:42:25.813Z,12.7
2018-07-20T02:47:28.104Z,12.6
2018-07-20T02:52:30.606Z,12.6
2018-07-20T02:57:32.831Z,12.5
2018-07-20T03:02:35.075Z,12.5
2018-07-20T03:07:37.454Z,12.5
2018-07-20T03:12:39.678Z,12.4
2018-07-20T03:17:42.011Z,12.4
2018-07-20T03:22:44.189Z,12.3
2018-07-20T03:27:46.517Z,12.3
2018-07-20T03:32:49.044Z,12.2
2018-07-20T03:37:51.151Z,12.1
2018-07-20T03:42:53.505Z,12.1
2018-07-20T03:47:55.716Z,12.1
2018-07-20T03:52:57.926Z,12
2018-07-20T03:58:00.289Z,12.1
2018-07-20T04:03:02.667Z,12.1
2018-07-20T04:08:04.891Z,12.2
2018-07-20T04:13:07.301Z,12.2
2018-07-20T04:18:09.478Z,12.3
2018-07-20T04:23:11.792Z,12.3
2018-07-20T04:28:14.109Z,12.4
2018-07-20T04:33:16.378Z,12.5
2018-07-20T04:38:18.702Z,12.6
2018-07-20T04:43:20.998Z,12.6
2018-07-20T04:48:23.209Z,12.7
2018-07-20T04:53:25.522Z,12.8
2018-07-20T05:03:30.108Z,13
2018-07-20T05:08:32.404Z,13.2
2018-07-20T05:13:34.649Z,13.4
2018-07-20T05:18:36.980Z,13.7
2018-07-20T05:23:39.345Z,14
2018-07-20T05:28:41.654Z,14.2
2018-07-20T05:33:43.950Z,14.4
2018-07-20T05:38:46.240Z,14.5
2018-07-20T05:48:50.918Z,14.9
2018-07-20T05:53:53.153Z,15.1
2018-07-20T06:03:57.718Z,15.7
2018-07-20T06:08:59.959Z,15.9
2018-07-20T06:14:02.385Z,16.299999
2018-07-20T06:19:04.627Z,16.6
2018-07-20T06:24:06.910Z,16.9
2018-07-20T06:29:09.170Z,17.4
2018-07-20T06:34:11.454Z,17.9
2018-07-20T06:39:13.801Z,18.299999
2018-07-20T06:44:16.033Z,18.700001
2018-07-20T06:49:18.373Z,19.1
2018-07-20T06:54:20.518Z,19.5
2018-07-20T06:59:22.873Z,20
2018-07-20T07:04:25.243Z,20.4
2018-07-20T07:09:28.060Z,20.799999
2018-07-20T07:14:29.776Z,21.1
2018-07-20T07:19:32.017Z,21.4
2018-07-20T07:24:34.312Z,21.799999
2018-07-20T07:29:36.756Z,21.9
2018-07-20T07:34:38.926Z,22.200001
2018-07-20T07:39:41.311Z,22.5
2018-07-20T07:44:43.566Z,22.799999
2018-07-20T07:49:45.881Z,23.1
2018-07-20T07:54:48.072Z,23.4
2018-07-20T07:59:50.473Z,23.6
2018-07-20T08:04:52.677Z,23.5
2018-07-20T08:09:55.151Z,23.700001
2018-07-20T08:14:57.271Z,23.799999
2018-07-20T08:19:59.594Z,24.1
2018-07-20T08:25:01.997Z,24.200001
2018-07-20T08:30:04.318Z,24.200001
2018-07-20T08:35:06.465Z,24.799999
2018-07-20T08:40:08.729Z,25.299999
2018-07-20T08:45:11.010Z,25.6
2018-07-20T08:50:13.980Z,26
2018-07-20T08:55:15.670Z,25.799999
2018-07-20T09:00:17.882Z,25.6
2018-07-20T09:05:20.224Z,25.700001
2018-07-20T09:10:22.645Z,26.4
2018-07-20T09:15:24.878Z,26.700001
2018-07-20T09:20:27.201Z,26.6
2018-07-20T09:25:29.905Z,26.6
2018-07-20T09:35:48.914Z,27.5
2018-07-20T09:40:51.294Z,28.4
2018-07-20T09:45:53.604Z,28.6
2018-07-20T09:50:55.771Z,28.1
2018-07-20T09:55:58.104Z,28.299999
2018-07-20T10:01:00.373Z,28.299999
2018-07-20T10:06:02.700Z,29.1
2018-07-20T10:11:05.073Z,29.700001
2018-07-20T10:16:07.276Z,29.9
2018-07-20T10:21:09.501Z,30.6
2018-07-20T10:26:11.960Z,30.700001
2018-07-20T10:31:14.164Z,30.9
2018-07-20T10:36:16.383Z,30.1
2018-07-20T10:41:18.747Z,30.4
2018-07-20T10:46:21.054Z,31
2018-07-20T10:51:23.336Z,30.9
2018-07-20T10:56:25.612Z,30.4
2018-07-20T11:01:28.500Z,29.799999
2018-07-20T11:06:30.118Z,29.5
2018-07-20T11:11:32.632Z,30.5
2018-07-20T11:16:34.884Z,31
2018-07-20T11:21:37.280Z,31.9
2018-07-20T11:26:39.422Z,32.5
2018-07-20T11:31:41.729Z,32.700001
2018-07-20T11:36:43.980Z,32.299999
2018-07-20T11:41:46.307Z,32.200001
2018-07-20T11:46:48.575Z,32.099998
2018-07-20T11:51:50.899Z,31.9
2018-07-20T11:56:53.185Z,31.6
2018-07-20T12:01:55.475Z,31.9
2018-07-20T12:06:57.811Z,31.5
2018-07-20T12:11:59.969Z,31
2018-07-20T12:17:02.319Z,30.299999
2018-07-20T12:22:04.655Z,30.1
2018-07-20T12:27:06.958Z,29.799999
2018-07-20T12:32:09.196Z,29.5
2018-07-20T12:37:11.546Z,28.9
2018-07-20T12:42:13.828Z,28.700001
2018-07-20T12:47:16.155Z,28.299999
2018-07-20T12:52:18.387Z,28
2018-07-20T12:57:20.704Z,27.6
2018-07-20T13:02:22.909Z,27.200001
2018-07-20T13:07:25.356Z,26.799999
2018-07-20T13:12:27.660Z,26.5
2018-07-20T13:17:29.894Z,26.200001
2018-07-20T13:22:32.080Z,26
2018-07-20T13:27:34.477Z,25.799999
2018-07-20T13:32:36.677Z,25.6
2018-07-20T13:37:39.551Z,25.5
2018-07-20T13:42:41.330Z,25.4
2018-07-20T13:47:43.615Z,25.299999
2018-07-20T13:52:46.028Z,25.1
2018-07-20T13:57:48.211Z,25
2018-07-20T14:02:50.497Z,24.9
2018-07-20T14:07:52.831Z,24.9
2018-07-20T14:17:57.488Z,24.9
2018-07-20T14:28:01.948Z,24.9
2018-07-20T14:33:04.209Z,25
2018-07-20T14:38:06.600Z,24.9
2018-07-20T14:43:08.900Z,24.9
2018-07-20T14:48:11.197Z,24.9
2018-07-20T14:53:13.487Z,25
2018-07-20T14:58:15.698Z,25
2018-07-20T15:03:18.026Z,25
2018-07-20T15:08:20.510Z,25
2018-07-20T15:13:22.719Z,25
2018-07-20T15:18:24.968Z,25
2018-07-20T15:23:27.184Z,25
2018-07-20T15:28:29.720Z,25
2018-07-20T15:33:31.796Z,25
2018-07-20T15:38:34.072Z,25
2018-07-20T15:43:36.455Z,25
2018-07-20T15:48:38.783Z,24.9
2018-07-20T15:53:41.064Z,24.9
2018-07-20T15:58:43.339Z,24.799999
2018-07-20T16:03:45.630Z,24.700001
2018-07-20T16:08:47.928Z,24.799999
2018-07-20T16:13:50.164Z,24.799999
2018-07-20T16:18:52.458Z,24.9
2018-07-20T16:23:55.075Z,24.799999
2018-07-20T16:28:57.020Z,24.700001
2018-07-20T16:33:59.294Z,24.6
2018-07-20T16:39:01.662Z,24.5
2018-07-20T16:44:03.875Z,24.4
2018-07-20T16:49:06.317Z,24.1
2018-07-20T16:54:08.496Z,24
2018-07-20T16:59:10.831Z,23.799999
2018-07-20T17:04:13.184Z,23.5
2018-07-20T17:09:15.342Z,23.299999
2018-07-20T17:14:17.770Z,23.1
2018-07-20T17:19:25.786Z,23
2018-07-20T17:24:22.198Z,22.799999
2018-07-20T17:29:24.631Z,22.700001
2018-07-20T17:34:26.897Z,22.5
2018-07-20T17:39:29.132Z,22.4
2018-07-20T17:44:31.486Z,22.299999
2018-07-20T17:49:33.847Z,22.200001
2018-07-20T17:54:36.096Z,22.200001
2018-07-20T17:59:38.288Z,22
2018-07-20T18:04:40.597Z,21.700001
2018-07-20T18:09:42.926Z,21.6
2018-07-20T18:14:45.322Z,21.4
2018-07-20T18:19:47.604Z,21.4
2018-07-20T18:24:49.769Z,21.299999
2018-07-20T18:29:52.128Z,21.4
2018-07-20T18:34:54.364Z,21.299999
2018-07-20T18:39:56.722Z,21.299999
2018-07-20T18:44:58.991Z,21.200001
2018-07-20T18:50:01.365Z,21.200001
2018-07-20T18:55:03.635Z,21.200001
2018-07-20T19:00:05.900Z,21.1
2018-07-20T19:05:08.179Z,21.1
2018-07-20T19:10:10.612Z,21
2018-07-20T19:15:12.860Z,20.9
2018-07-20T19:20:14.990Z,20.799999
2018-07-20T19:25:17.314Z,20.700001
2018-07-20T19:30:19.622Z,20.6
2018-07-20T19:35:22.233Z,20.5
2018-07-20T19:40:24.258Z,20.5
2018-07-20T19:45:26.531Z,20.4
2018-07-20T19:50:28.909Z,20.299999
2018-07-20T19:55:31.216Z,20.200001
2018-07-20T20:00:33.581Z,20.1
2018-07-20T20:05:35.716Z,20
2018-07-20T20:10:37.983Z,19.9
2018-07-20T20:15:40.285Z,19.9
2018-07-20T20:20:42.672Z,19.9
2018-07-20T20:25:44.969Z,19.799999
2018-07-20T20:30:47.171Z,19.799999
2018-07-20T20:35:49.511Z,19.700001
2018-07-20T20:40:51.801Z,19.6
2018-07-20T20:45:54.070Z,19.6
2018-07-20T20:50:56.395Z,19.5
2018-07-20T20:55:58.644Z,19.5
2018-07-20T21:01:00.947Z,19.5
2018-07-20T21:06:03.361Z,19.4
2018-07-20T21:11:05.549Z,19.299999
2018-07-20T21:16:07.767Z,19.299999
2018-07-20T21:21:10.067Z,19.299999
2018-07-20T21:26:12.439Z,19.299999
2018-07-20T21:31:14.728Z,19.299999
2018-07-20T21:36:16.996Z,19.200001
2018-07-20T21:41:19.207Z,19.200001
2018-07-20T21:46:21.710Z,19.200001
2018-07-20T21:51:23.828Z,19.200001
2018-07-20T21:56:26.222Z,19.1
2018-07-20T22:01:28.545Z,19.1
2018-07-20T22:06:30.836Z,19.1
2018-07-20T22:11:33.055Z,19
2018-07-20T22:16:35.365Z,19
2018-07-20T22:21:37.622Z,19
2018-07-20T22:26:39.897Z,19
2018-07-20T22:31:42.266Z,19
2018-07-20T22:36:44.566Z,18.9
2018-07-20T22:41:46.800Z,18.799999
2018-07-20T22:46:49.207Z,18.799999
2018-07-20T22:51:51.345Z,18.700001
2018-07-20T22:56:53.665Z,18.799999
2018-07-20T23:01:55.993Z,18.700001
2018-07-20T23:06:58.307Z,18.700001
2018-07-20T23:12:00.552Z,18.9
2018-07-20T23:17:02.975Z,18.9
2018-07-20T23:22:05.318Z,18.9
2018-07-20T23:27:07.569Z,18.9
2018-07-20T23:32:09.787Z,19
2018-07-20T23:37:12.061Z,19
2018-07-20T23:42:14.395Z,19
2018-07-20T23:47:16.764Z,19
2018-07-20T23:52:18.978Z,18.9
2018-07-20T23:57:21.264Z,18.9
